Time;durP1;ratioP1;P1;durP2;ratioP2;P2;SDS_P1;SDS_P2;PMS_P1;PMS_P2;Temp;Humidity;BMP_temperature;BMP_pressure;BME280_temperature;BME280_humidity;BME280_pressure;Samples;Min_cycle;Max_cycle;Signal;HPM_P1;HPM_P2
2021/01/24 00:01:24;;;;;;;24.33;10.90;;;2.50;99.90;;;;;;5015870;28;20255;-76
2021/01/24 00:03:50;;;;;;;22.33;11.57;;;2.50;99.90;;;;;;5017635;28;20197;-76
2021/01/24 00:06:17;;;;;;;21.30;11.10;;;2.50;99.90;;;;;;5016347;28;20634;-76
2021/01/24 00:08:43;;;;;;;21.83;10.57;;;2.40;99.90;;;;;;5016929;28;20720;-76
2021/01/24 00:11:10;;;;;;;22.33;11.73;;;2.50;99.90;;;;;;5018086;28;20206;-76
2021/01/24 00:13:36;;;;;;;21.70;10.50;;;2.50;99.90;;;;;;5020219;28;20673;-76
2021/01/24 00:16:03;;;;;;;21.57;10.90;;;2.40;99.90;;;;;;5020016;28;20360;-76
2021/01/24 00:18:30;;;;;;;21.80;10.80;;;2.40;99.90;;;;;;5020063;28;20299;-76
2021/01/24 00:20:56;;;;;;;21.57;11.13;;;2.40;99.90;;;;;;5018090;28;20223;-76
2021/01/24 00:23:22;;;;;;;20.83;10.80;;;2.40;99.90;;;;;;5019697;28;20220;-76
2021/01/24 00:25:49;;;;;;;20.63;10.40;;;2.40;99.90;;;;;;5018839;28;20338;-76
2021/01/24 00:28:20;;;;;;;20.13;10.20;;;2.30;99.90;;;;;;5017852;28;20207;-76
2021/01/24 00:30:46;;;;;;;21.20;9.97;;;2.30;99.90;;;;;;5019831;28;20224;-76
2021/01/24 00:33:14;;;;;;;20.23;11.00;;;2.30;99.90;;;;;;5020570;28;20230;-75
2021/01/24 00:35:40;;;;;;;19.33;10.27;;;2.30;99.90;;;;;;5020171;28;20315;-75
2021/01/24 00:38:06;;;;;;;18.07;9.40;;;2.30;99.90;;;;;;5019434;28;20215;-76
2021/01/24 00:40:33;;;;;;;22.80;11.57;;;2.30;99.90;;;;;;5020858;28;20674;-75
2021/01/24 00:42:59;;;;;;;21.27;10.77;;;2.20;99.90;;;;;;5018143;28;20227;-75
2021/01/24 00:45:25;;;;;;;19.40;9.80;;;2.20;99.90;;;;;;5013956;28;20402;-76
2021/01/24 00:47:52;;;;;;;24.57;11.40;;;2.20;99.90;;;;;;5019775;28;20226;-76
2021/01/24 00:50:19;;;;;;;20.87;10.57;;;2.20;99.90;;;;;;5017483;28;20547;-76
2021/01/24 00:52:46;;;;;;;18.77;9.80;;;2.20;99.90;;;;;;5015777;28;20240;-76
2021/01/24 00:55:12;;;;;;;18.03;9.67;;;2.20;99.90;;;;;;5018182;28;20284;-76
2021/01/24 00:57:38;;;;;;;21.53;10.60;;;2.10;99.90;;;;;;5011964;28;20224;-76
2021/01/24 01:00:06;;;;;;;19.67;10.23;;;2.10;99.90;;;;;;5010804;28;20228;-76
2021/01/24 01:02:33;;;;;;;20.67;10.50;;;2.10;99.90;;;;;;5009974;28;20715;-76
2021/01/24 01:04:59;;;;;;;20.63;10.57;;;2.10;99.90;;;;;;5012309;28;20253;-76
2021/01/24 01:07:26;;;;;;;17.57;9.70;;;2.10;99.90;;;;;;5012206;28;20792;-76
2021/01/24 01:09:53;;;;;;;19.80;10.57;;;2.10;99.90;;;;;;5013706;28;20287;-76
2021/01/24 01:12:19;;;;;;;21.67;10.37;;;2.10;99.90;;;;;;5010743;28;20260;-76
2021/01/24 01:14:46;;;;;;;19.43;10.67;;;2.10;99.90;;;;;;5014369;28;20295;-76
2021/01/24 01:17:12;;;;;;;17.90;9.47;;;2.10;99.90;;;;;;5012588;28;20365;-76
2021/01/24 01:19:38;;;;;;;20.23;10.47;;;2.10;99.90;;;;;;5013741;28;20750;-76
2021/01/24 01:22:05;;;;;;;22.30;10.13;;;2.10;99.90;;;;;;5011698;28;20255;-78
2021/01/24 01:24:32;;;;;;;21.37;10.57;;;2.10;99.90;;;;;;5010331;28;20291;-76
2021/01/24 01:26:58;;;;;;;19.00;9.33;;;2.10;99.90;;;;;;5010974;28;20214;-76
2021/01/24 01:29:25;;;;;;;20.63;9.73;;;2.10;99.90;;;;;;5011058;28;20208;-75
2021/01/24 01:31:51;;;;;;;18.70;9.57;;;2.10;99.90;;;;;;5011406;28;20259;-76
2021/01/24 01:34:18;;;;;;;21.60;10.67;;;2.10;99.90;;;;;;5013061;28;20211;-75
2021/01/24 01:36:44;;;;;;;18.63;9.43;;;2.10;99.90;;;;;;5020172;28;20200;-76
2021/01/24 01:39:10;;;;;;;21.70;10.40;;;2.10;99.90;;;;;;5018332;28;20656;-76
2021/01/24 01:41:38;;;;;;;20.00;9.97;;;2.00;99.90;;;;;;5018039;28;20215;-75
2021/01/24 01:44:05;;;;;;;20.93;9.97;;;2.00;99.90;;;;;;5019858;28;20307;-76
2021/01/24 01:46:31;;;;;;;17.47;9.53;;;2.00;99.90;;;;;;5014220;28;20226;-76
2021/01/24 01:48:58;;;;;;;19.67;9.33;;;2.00;99.90;;;;;;5009864;23;20251;-71
2021/01/24 01:51:24;;;;;;;18.83;9.37;;;2.00;99.90;;;;;;4993769;28;20316;-72
2021/01/24 01:53:53;;;;;;;19.53;9.53;;;2.00;99.90;;;;;;5000453;28;20295;-71
2021/01/24 01:56:19;;;;;;;20.97;10.10;;;2.00;99.90;;;;;;4998685;28;20205;-71
2021/01/24 01:58:46;;;;;;;20.50;9.90;;;1.90;99.90;;;;;;4999385;28;20291;-71
2021/01/24 02:01:24;;;;;;;20.87;9.77;;;1.90;99.90;;;;;;4995690;28;20596;-71
2021/01/24 02:03:57;;;;;;;21.27;9.47;;;1.90;99.90;;;;;;4998144;28;20624;-70
2021/01/24 02:06:31;;;;;;;20.47;9.90;;;2.00;99.90;;;;;;4997230;28;20236;-70
2021/01/24 02:09:03;;;;;;;21.73;10.70;;;2.00;99.90;;;;;;4997292;28;20285;-71
2021/01/24 02:11:36;;;;;;;17.67;9.07;;;2.00;99.90;;;;;;4996621;28;20829;-71
2021/01/24 02:14:15;;;;;;;21.03;10.40;;;2.00;99.90;;;;;;4998211;28;20255;-70
2021/01/24 02:16:42;;;;;;;18.93;9.73;;;2.00;99.90;;;;;;4999480;28;20267;-73
2021/01/24 02:19:17;;;;;;;22.80;10.73;;;2.00;99.90;;;;;;4998944;28;20226;-70
2021/01/24 02:21:45;;;;;;;21.77;10.07;;;2.00;99.90;;;;;;4993854;28;20226;-72
2021/01/24 02:24:15;;;;;;;21.27;10.53;;;2.00;99.90;;;;;;4997245;28;20335;-72
2021/01/24 02:26:48;;;;;;;23.27;10.47;;;2.00;99.90;;;;;;5000754;28;20211;-70
2021/01/24 02:29:22;;;;;;;22.10;10.43;;;2.00;99.90;;;;;;4999366;28;20204;-72
2021/01/24 02:31:52;;;;;;;21.87;10.70;;;2.00;99.90;;;;;;4996789;28;20233;-72
2021/01/24 02:34:22;;;;;;;21.40;10.37;;;1.90;99.90;;;;;;4994550;28;20255;-71
2021/01/24 02:36:49;;;;;;;20.80;10.67;;;1.90;99.90;;;;;;4999239;28;20311;-71
2021/01/24 02:39:19;;;;;;;20.00;10.07;;;1.80;99.90;;;;;;4997133;28;20697;-71
2021/01/24 02:41:45;;;;;;;22.57;10.53;;;1.90;99.90;;;;;;4997159;28;20219;-71
2021/01/24 02:44:13;;;;;;;23.07;11.17;;;1.90;99.90;;;;;;4998555;28;20215;-73
2021/01/24 02:46:41;;;;;;;22.87;10.77;;;1.80;99.90;;;;;;4991412;28;20212;-72
2021/01/24 02:49:08;;;;;;;23.80;11.13;;;1.80;99.90;;;;;;4992838;28;20681;-72
2021/01/24 02:51:35;;;;;;;23.13;11.23;;;1.80;99.90;;;;;;4991159;28;20679;-71
2021/01/24 02:54:03;;;;;;;21.60;9.83;;;1.80;99.90;;;;;;4993128;28;20243;-71
2021/01/24 02:56:30;;;;;;;20.67;10.53;;;1.80;99.90;;;;;;5000033;28;20205;-71
2021/01/24 02:58:56;;;;;;;22.17;10.57;;;1.80;99.90;;;;;;4996477;28;20197;-71
2021/01/24 03:01:23;;;;;;;21.43;10.20;;;1.70;99.90;;;;;;4995095;28;20624;-71
2021/01/24 03:03:49;;;;;;;21.67;10.57;;;1.70;99.90;;;;;;5002020;28;20205;-72
2021/01/24 03:06:17;;;;;;;23.20;10.90;;;1.60;99.90;;;;;;5010543;28;20265;-71
2021/01/24 03:08:44;;;;;;;26.10;12.10;;;1.60;99.90;;;;;;5010751;28;20297;-72
2021/01/24 03:11:13;;;;;;;26.63;11.83;;;1.50;99.90;;;;;;4995028;28;20575;-73
2021/01/24 03:13:44;;;;;;;27.97;12.50;;;1.50;99.90;;;;;;4998367;28;20354;-72
2021/01/24 03:16:13;;;;;;;26.30;12.30;;;1.50;99.90;;;;;;4998569;28;20307;-72
2021/01/24 03:18:43;;;;;;;29.67;12.80;;;1.40;99.90;;;;;;4996231;28;20211;-71
2021/01/24 03:21:11;;;;;;;25.60;12.30;;;1.40;99.90;;;;;;4993866;28;20315;-71
2021/01/24 03:23:39;;;;;;;30.57;13.00;;;1.40;99.90;;;;;;4997889;28;20210;-71
2021/01/24 03:26:07;;;;;;;29.37;13.10;;;1.40;99.90;;;;;;4997428;28;20291;-73
2021/01/24 03:28:37;;;;;;;26.77;12.87;;;1.50;99.90;;;;;;4998359;28;20547;-71
2021/01/24 03:31:04;;;;;;;28.27;12.77;;;1.50;99.90;;;;;;4996324;28;20239;-71
2021/01/24 03:33:32;;;;;;;29.83;12.40;;;1.40;99.90;;;;;;4995710;28;20200;-71
2021/01/24 03:35:59;;;;;;;26.83;11.90;;;1.40;99.90;;;;;;4996764;28;20205;-72
2021/01/24 03:38:25;;;;;;;26.33;11.90;;;1.40;99.90;;;;;;4998294;28;20665;-72
2021/01/24 03:40:53;;;;;;;29.57;12.83;;;1.40;99.90;;;;;;4998196;28;20220;-70
2021/01/24 03:43:19;;;;;;;29.00;12.57;;;1.40;99.90;;;;;;4998640;28;20242;-71
2021/01/24 03:45:45;;;;;;;28.87;12.33;;;1.30;99.90;;;;;;4990941;28;20548;-72
2021/01/24 03:48:12;;;;;;;28.27;12.53;;;1.40;99.90;;;;;;5001223;28;20211;-72
2021/01/24 03:50:38;;;;;;;25.13;12.17;;;1.40;99.90;;;;;;4999599;28;20203;-72
2021/01/24 03:53:05;;;;;;;25.20;10.77;;;1.40;99.90;;;;;;5004873;28;20228;-72
2021/01/24 03:55:32;;;;;;;24.90;10.60;;;1.40;99.90;;;;;;4997689;28;20214;-71
2021/01/24 03:57:59;;;;;;;22.27;10.57;;;1.40;99.90;;;;;;5001732;28;20213;-71
2021/01/24 04:00:25;;;;;;;23.07;9.93;;;1.50;99.90;;;;;;4999508;28;20315;-72
2021/01/24 04:02:52;;;;;;;20.60;9.87;;;1.50;99.90;;;;;;4997975;28;20602;-71
2021/01/24 04:05:18;;;;;;;14.03;6.67;;;1.50;99.90;;;;;;5001015;28;20204;-73
2021/01/24 04:07:44;;;;;;;9.27;4.43;;;1.50;99.90;;;;;;4997447;28;20334;-72
2021/01/24 04:10:12;;;;;;;7.17;3.80;;;1.50;99.90;;;;;;5001679;28;20658;-72
2021/01/24 04:12:39;;;;;;;3.40;2.03;;;1.50;99.90;;;;;;4998615;28;20229;-71
2021/01/24 04:15:08;;;;;;;2.37;1.47;;;1.60;99.90;;;;;;5003553;28;20466;-73
2021/01/24 04:17:34;;;;;;;1.93;1.23;;;1.70;99.90;;;;;;5020632;28;20207;-72
2021/01/24 04:20:01;;;;;;;1.97;1.27;;;1.60;99.90;;;;;;5017484;28;20248;-71
2021/01/24 04:22:27;;;;;;;2.03;1.47;;;1.70;99.90;;;;;;5002171;28;20224;-73
2021/01/24 04:24:54;;;;;;;3.23;1.20;;;1.60;99.90;;;;;;4999798;28;20602;-73
2021/01/24 04:27:20;;;;;;;1.50;1.07;;;1.60;99.90;;;;;;5001645;28;20936;-71
2021/01/24 04:29:46;;;;;;;1.50;1.20;;;1.60;99.90;;;;;;5000915;28;20295;-71
2021/01/24 04:32:14;;;;;;;1.70;1.20;;;1.50;99.90;;;;;;5002467;28;20290;-72
2021/01/24 04:34:40;;;;;;;1.73;1.23;;;1.40;99.90;;;;;;4998951;28;20307;-72
2021/01/24 04:37:06;;;;;;;1.27;1.10;;;1.40;99.90;;;;;;5000115;28;20464;-71
2021/01/24 04:39:33;;;;;;;1.63;1.40;;;1.40;99.90;;;;;;5001871;28;20217;-71
2021/01/24 04:41:59;;;;;;;2.10;1.50;;;1.40;99.90;;;;;;4999815;28;20857;-71
2021/01/24 04:44:27;;;;;;;1.30;1.20;;;1.50;99.90;;;;;;4999001;28;21518;-71
2021/01/24 04:46:53;;;;;;;1.77;1.20;;;1.50;99.90;;;;;;4995215;28;20204;-72
2021/01/24 04:49:22;;;;;;;1.53;1.20;;;1.40;99.90;;;;;;4998269;28;21077;-71
2021/01/24 04:51:48;;;;;;;1.20;1.00;;;1.40;99.90;;;;;;4995349;28;20224;-70
2021/01/24 04:54:15;;;;;;;1.50;1.20;;;1.30;99.90;;;;;;5001170;28;20303;-71
2021/01/24 04:56:41;;;;;;;1.10;0.90;;;1.50;99.90;;;;;;5002832;28;20300;-70
2021/01/24 04:59:08;;;;;;;1.10;0.87;;;1.50;99.90;;;;;;4999486;28;20295;-71
2021/01/24 05:01:39;;;;;;;1.00;0.90;;;1.40;99.90;;;;;;5000301;28;20224;-71
2021/01/24 05:04:06;;;;;;;1.07;0.90;;;1.30;99.90;;;;;;4997007;28;20533;-71
2021/01/24 05:06:33;;;;;;;1.40;1.10;;;1.30;99.90;;;;;;4999049;28;21039;-71
2021/01/24 05:09:00;;;;;;;1.20;1.00;;;1.20;99.90;;;;;;5001930;28;20204;-71
2021/01/24 05:11:27;;;;;;;1.23;1.13;;;1.20;99.90;;;;;;5000635;28;20307;-71
2021/01/24 05:13:53;;;;;;;1.50;1.37;;;1.20;99.90;;;;;;4999192;28;20248;-72
2021/01/24 05:16:21;;;;;;;1.70;1.30;;;1.10;99.90;;;;;;5001789;28;20208;-71
2021/01/24 05:18:56;;;;;;;1.30;1.00;;;1.10;99.90;;;;;;5000100;28;20204;-71
2021/01/24 05:21:22;;;;;;;1.40;1.00;;;1.10;99.90;;;;;;4999586;28;20232;-72
2021/01/24 05:23:50;;;;;;;1.37;1.00;;;1.10;99.90;;;;;;4998051;28;20478;-70
2021/01/24 05:26:16;;;;;;;1.20;0.83;;;1.10;99.90;;;;;;5003847;28;20197;-72
2021/01/24 05:28:47;;;;;;;1.00;0.73;;;1.20;99.90;;;;;;5012786;28;20293;-71
2021/01/24 05:31:14;;;;;;;1.13;0.93;;;1.30;99.90;;;;;;5008770;28;20459;-70
2021/01/24 05:33:44;;;;;;;1.50;0.90;;;1.10;99.90;;;;;;4999338;28;20295;-71
2021/01/24 05:36:11;;;;;;;1.23;1.00;;;1.10;99.90;;;;;;4999357;28;20205;-71
2021/01/24 05:38:38;;;;;;;1.23;0.90;;;1.00;99.90;;;;;;4998778;28;21032;-70
2021/01/24 05:41:06;;;;;;;0.90;0.80;;;1.00;99.90;;;;;;5000030;28;20355;-73
2021/01/24 05:43:35;;;;;;;0.97;0.83;;;0.90;99.90;;;;;;5000007;28;20977;-71
2021/01/24 05:46:03;;;;;;;1.27;1.00;;;0.80;99.90;;;;;;4993307;28;21005;-71
2021/01/24 05:48:29;;;;;;;1.13;0.90;;;0.90;99.90;;;;;;4996399;28;20462;-71
2021/01/24 05:50:56;;;;;;;1.17;1.03;;;0.90;99.90;;;;;;4998878;28;20206;-72
2021/01/24 05:53:24;;;;;;;1.40;1.00;;;0.90;99.90;;;;;;5000568;28;20228;-70
2021/01/24 05:55:50;;;;;;;1.17;0.80;;;0.80;99.90;;;;;;4999724;28;21216;-71
2021/01/24 05:58:20;;;;;;;0.97;0.83;;;0.80;99.90;;;;;;4999338;28;20931;-72
2021/01/24 06:00:49;;;;;;;2.63;0.93;;;0.80;99.90;;;;;;4997559;28;20220;-72
2021/01/24 06:03:16;;;;;;;1.43;0.97;;;0.80;99.90;;;;;;5000141;28;20251;-71
2021/01/24 06:05:43;;;;;;;0.80;0.80;;;0.90;99.90;;;;;;4997958;28;20223;-72
2021/01/24 06:08:11;;;;;;;0.90;0.80;;;0.80;99.90;;;;;;4999830;28;20463;-72
2021/01/24 06:10:38;;;;;;;1.23;1.00;;;0.80;99.90;;;;;;4997462;28;20531;-71
2021/01/24 06:13:05;;;;;;;1.00;0.80;;;0.80;99.90;;;;;;4996970;28;20587;-71
2021/01/24 06:15:36;;;;;;;1.10;0.90;;;0.80;99.90;;;;;;4999357;28;20196;-70
2021/01/24 06:18:07;;;;;;;0.80;0.77;;;0.90;99.90;;;;;;4999583;28;20466;-70
2021/01/24 06:20:37;;;;;;;1.13;0.80;;;0.90;99.90;;;;;;5002785;28;20482;-71
2021/01/24 06:23:11;;;;;;;0.90;0.80;;;0.90;99.90;;;;;;4996046;28;20917;-72
2021/01/24 06:25:42;;;;;;;0.80;0.70;;;0.90;99.90;;;;;;4997448;28;20542;-70
2021/01/24 06:28:11;;;;;;;0.60;0.60;;;0.90;99.90;;;;;;4998246;28;20545;-71
2021/01/24 06:30:39;;;;;;;0.70;0.63;;;0.80;99.90;;;;;;4995009;28;20201;-73
2021/01/24 06:33:15;;;;;;;0.90;0.70;;;0.80;99.90;;;;;;4999609;28;20267;-71
2021/01/24 06:35:46;;;;;;;0.60;0.60;;;0.80;99.90;;;;;;4997279;28;20661;-71
2021/01/24 06:38:27;;;;;;;0.70;0.70;;;0.90;99.90;;;;;;5009683;28;20254;-71
2021/01/24 06:40:54;;;;;;;0.67;0.60;;;0.80;99.90;;;;;;5012234;28;20489;-71
2021/01/24 06:43:44;;;;;;;0.87;0.77;;;1.00;99.90;;;;;;4998068;28;20320;-71
2021/01/24 06:46:40;;;;;;;0.73;0.57;;;1.00;99.90;;;;;;4995537;28;20491;-72
2021/01/24 06:49:07;;;;;;;0.97;0.60;;;1.00;99.90;;;;;;4997226;28;20212;-71
2021/01/24 06:51:36;;;;;;;0.80;0.67;;;0.90;99.90;;;;;;4994057;28;20486;-70
2021/01/24 06:54:04;;;;;;;0.40;0.40;;;1.00;99.90;;;;;;4997021;28;20209;-71
2021/01/24 06:56:41;;;;;;;0.80;0.60;;;1.00;99.90;;;;;;4997568;28;20516;-72
2021/01/24 06:59:08;;;;;;;0.50;0.50;;;1.00;99.90;;;;;;4998014;28;20298;-71
2021/01/24 07:01:36;;;;;;;0.60;0.50;;;1.00;99.90;;;;;;4999240;28;20227;-72
2021/01/24 07:04:42;;;;;;;0.77;0.60;;;1.00;99.90;;;;;;5000826;28;20667;-72
2021/01/24 07:07:33;;;;;;;0.77;0.70;;;1.00;99.90;;;;;;4998613;28;20204;-70
2021/01/24 07:10:01;;;;;;;0.30;0.30;;;0.90;99.90;;;;;;4990022;28;20968;-71
2021/01/24 07:12:41;;;;;;;1.10;0.60;;;0.90;99.90;;;;;;4999529;28;20505;-71
2021/01/24 07:15:11;;;;;;;0.67;0.57;;;1.00;99.90;;;;;;4996223;28;20880;-70
2021/01/24 07:17:38;;;;;;;0.40;0.40;;;1.00;99.90;;;;;;4999104;28;20247;-70
2021/01/24 07:20:07;;;;;;;0.60;0.50;;;1.00;99.90;;;;;;4998820;28;20236;-69
2021/01/24 07:22:33;;;;;;;0.60;0.50;;;1.00;99.90;;;;;;5000223;28;20863;-71
2021/01/24 07:25:00;;;;;;;0.70;0.60;;;1.00;99.90;;;;;;5003528;28;20205;-71
2021/01/24 07:27:29;;;;;;;0.40;0.40;;;1.00;99.90;;;;;;5002446;28;20216;-71
2021/01/24 07:29:56;;;;;;;0.60;0.50;;;0.90;99.90;;;;;;5001336;28;20208;-72
2021/01/24 07:32:24;;;;;;;0.53;0.50;;;1.00;99.90;;;;;;4998815;28;20526;-70
2021/01/24 07:34:54;;;;;;;0.40;0.40;;;0.90;99.90;;;;;;5001615;28;20292;-71
2021/01/24 07:37:21;;;;;;;0.67;0.50;;;1.00;99.90;;;;;;5002562;28;20468;-71
2021/01/24 07:39:49;;;;;;;0.43;0.43;;;1.00;99.90;;;;;;5003135;28;20880;-71
2021/01/24 07:42:17;;;;;;;0.43;0.43;;;1.00;99.90;;;;;;5000632;28;20664;-71
2021/01/24 07:44:44;;;;;;;0.97;0.60;;;1.20;99.90;;;;;;5001306;28;20836;-69
2021/01/24 07:47:12;;;;;;;0.80;0.40;;;1.20;99.90;;;;;;5008223;23;20228;-74
2021/01/24 07:49:40;;;;;;;0.73;0.53;;;1.30;99.90;;;;;;5000093;28;20295;-75
2021/01/24 07:52:08;;;;;;;0.50;0.50;;;1.20;99.90;;;;;;5000255;28;20642;-75
2021/01/24 07:54:36;;;;;;;0.63;0.60;;;1.30;99.90;;;;;;4999700;28;20591;-75
2021/01/24 07:57:04;;;;;;;0.87;0.70;;;1.20;99.90;;;;;;5003956;28;20924;-76
2021/01/24 07:59:31;;;;;;;1.00;0.80;;;1.40;99.90;;;;;;4998043;28;20574;-77
2021/01/24 08:01:58;;;;;;;1.00;0.80;;;1.40;99.90;;;;;;4999853;28;20256;-77
2021/01/24 08:04:26;;;;;;;1.60;0.80;;;1.60;99.90;;;;;;5003625;28;20201;-76
2021/01/24 08:06:52;;;;;;;1.13;0.80;;;1.50;99.90;;;;;;5004078;28;20752;-76
2021/01/24 08:09:20;;;;;;;0.97;0.70;;;1.40;99.90;;;;;;4999474;28;20471;-77
2021/01/24 08:11:47;;;;;;;0.80;0.70;;;1.40;99.90;;;;;;4999600;28;20303;-76
2021/01/24 08:14:14;;;;;;;1.00;0.70;;;1.30;99.90;;;;;;4996778;28;21821;-77
2021/01/24 08:16:43;;;;;;;1.07;0.90;;;1.40;99.90;;;;;;4983852;28;20318;-75
2021/01/24 08:19:12;;;;;;;2.07;0.90;;;1.30;99.90;;;;;;4998361;28;20224;-75
2021/01/24 08:21:39;;;;;;;1.73;1.13;;;1.60;99.90;;;;;;4998266;28;20229;-77
2021/01/24 08:24:07;;;;;;;1.17;0.70;;;1.50;99.90;;;;;;4992802;28;20209;-75
2021/01/24 08:26:35;;;;;;;2.60;1.00;;;1.50;99.90;;;;;;4998401;28;20569;-76
2021/01/24 08:29:02;;;;;;;1.20;1.00;;;1.50;99.90;;;;;;4995483;28;20292;-75
2021/01/24 08:31:29;;;;;;;1.47;1.10;;;1.50;99.90;;;;;;4997514;28;20249;-77
2021/01/24 08:33:56;;;;;;;1.70;1.17;;;1.50;99.90;;;;;;4998713;28;20335;-74
2021/01/24 08:36:25;;;;;;;1.60;1.00;;;1.60;99.90;;;;;;4998415;28;20207;-77
2021/01/24 08:38:56;;;;;;;1.33;1.00;;;1.60;99.90;;;;;;4995433;28;20328;-74
2021/01/24 08:41:28;;;;;;;1.93;1.17;;;1.60;99.90;;;;;;4995330;28;20252;-77
2021/01/24 08:44:07;;;;;;;1.33;1.07;;;1.60;99.90;;;;;;4996394;28;20365;-75
2021/01/24 08:46:40;;;;;;;1.50;1.20;;;1.60;99.90;;;;;;4994313;28;20200;-76
2021/01/24 08:49:09;;;;;;;1.20;0.90;;;1.60;99.90;;;;;;4992148;28;20219;-75
2021/01/24 08:51:50;;;;;;;1.67;1.00;;;1.60;99.90;;;;;;4992236;28;20282;-76
2021/01/24 08:54:25;;;;;;;1.33;1.00;;;1.60;99.90;;;;;;4994841;28;20218;-76
2021/01/24 08:56:52;;;;;;;2.07;1.00;;;1.60;99.90;;;;;;4912425;28;20311;-76
2021/01/24 08:59:21;;;;;;;1.70;1.10;;;1.60;99.90;;;;;;4982387;28;20727;-77
2021/01/24 09:01:50;;;;;;;0.77;0.77;;;1.60;99.90;;;;;;4973977;28;21165;-77
2021/01/24 09:04:26;;;;;;;2.83;1.23;;;1.90;99.90;;;;;;4977246;28;20484;-74
2021/01/24 09:07:07;;;;;;;0.90;0.80;;;1.90;99.90;;;;;;4978561;28;20544;-77
2021/01/24 09:09:34;;;;;;;1.97;1.10;;;1.80;99.90;;;;;;4975752;28;20209;-76
2021/01/24 09:12:01;;;;;;;2.17;1.23;;;1.80;99.90;;;;;;4977349;28;20698;-77
2021/01/24 09:14:29;;;;;;;2.47;1.20;;;1.80;99.90;;;;;;4973425;28;20481;-76
2021/01/24 09:17:04;;;;;;;2.17;1.30;;;1.80;99.90;;;;;;4975072;28;20785;-76
2021/01/24 09:19:30;;;;;;;1.77;1.33;;;1.70;99.90;;;;;;4973831;28;20204;-74
2021/01/24 09:21:57;;;;;;;2.47;1.40;;;1.80;99.90;;;;;;4973355;28;20669;-76
2021/01/24 09:24:24;;;;;;;2.73;1.33;;;1.70;99.90;;;;;;4974010;28;20284;-77
2021/01/24 09:26:50;;;;;;;1.97;1.33;;;1.70;99.90;;;;;;4974647;28;20274;-77
2021/01/24 09:29:17;;;;;;;3.17;1.67;;;1.70;99.90;;;;;;4970938;28;20676;-75
2021/01/24 09:31:45;;;;;;;2.90;1.53;;;1.70;99.90;;;;;;4974677;28;20224;-77
2021/01/24 09:34:12;;;;;;;2.13;1.33;;;1.80;99.90;;;;;;4977294;28;20791;-77
2021/01/24 09:36:38;;;;;;;3.10;1.67;;;1.80;99.90;;;;;;4975339;28;20559;-76
2021/01/24 09:39:06;;;;;;;3.50;1.67;;;1.80;99.90;;;;;;4974232;28;20863;-76
2021/01/24 09:41:33;;;;;;;3.27;1.70;;;1.80;99.90;;;;;;4979268;28;20280;-74
2021/01/24 09:44:00;;;;;;;4.30;1.80;;;1.90;99.90;;;;;;4971178;28;20248;-77
2021/01/24 09:46:26;;;;;;;3.17;2.10;;;1.90;99.90;;;;;;4974803;28;20206;-75
2021/01/24 09:48:54;;;;;;;3.37;2.17;;;1.90;99.90;;;;;;4971006;28;20584;-74
2021/01/24 09:51:21;;;;;;;2.97;1.90;;;1.90;99.90;;;;;;4973601;28;20255;-77
2021/01/24 09:53:51;;;;;;;2.80;1.80;;;1.90;99.90;;;;;;4972001;28;20204;-77
2021/01/24 09:56:18;;;;;;;3.57;2.07;;;1.90;99.90;;;;;;4968544;28;21218;-76
2021/01/24 09:58:45;;;;;;;3.97;1.70;;;2.00;99.90;;;;;;4967096;28;20205;-77
2021/01/24 10:01:12;;;;;;;3.37;2.20;;;2.10;99.90;;;;;;4962096;28;20233;-74
2021/01/24 10:03:39;;;;;;;3.80;1.83;;;2.20;99.90;;;;;;4965060;28;20213;-74
2021/01/24 10:06:06;;;;;;;2.47;1.70;;;2.20;99.90;;;;;;4966237;28;20209;-77
2021/01/24 10:08:33;;;;;;;3.20;1.87;;;2.30;99.90;;;;;;4966036;28;20296;-77
2021/01/24 10:11:00;;;;;;;3.33;2.10;;;2.40;99.90;;;;;;4971780;28;20233;-77
2021/01/24 10:13:27;;;;;;;4.03;2.30;;;2.40;99.90;;;;;;4970347;28;20333;-78
2021/01/24 10:15:54;;;;;;;2.57;1.60;;;2.40;99.90;;;;;;4971019;28;20775;-77
2021/01/24 10:18:22;;;;;;;3.07;1.80;;;2.30;99.90;;;;;;4967722;28;20209;-75
2021/01/24 10:20:48;;;;;;;3.03;1.80;;;2.40;99.90;;;;;;4961700;28;20894;-74
2021/01/24 10:23:20;;;;;;;7.10;2.30;;;2.40;99.90;;;;;;4966977;28;20232;-76
2021/01/24 10:25:47;;;;;;;3.73;2.20;;;2.30;99.90;;;;;;4974139;28;20730;-74
2021/01/24 10:28:13;;;;;;;5.27;2.63;;;2.20;99.90;;;;;;4973673;28;20300;-76
2021/01/24 10:30:39;;;;;;;5.93;3.20;;;2.20;99.90;;;;;;4970993;28;20352;-75
2021/01/24 10:33:10;;;;;;;4.87;2.70;;;2.30;99.90;;;;;;4973097;28;20235;-76
2021/01/24 10:38:23;;;;;;;4.97;2.90;;;2.30;99.90;;;;;;4960410;28;20235;-76
2021/01/24 10:40:50;;;;;;;5.53;3.03;;;2.40;99.90;;;;;;4974696;28;20233;-75
2021/01/24 10:43:17;;;;;;;8.00;3.10;;;2.40;99.90;;;;;;4981552;28;20229;-75
2021/01/24 10:45:44;;;;;;;6.83;3.87;;;2.40;99.90;;;;;;4980507;28;20714;-75
2021/01/24 10:48:11;;;;;;;5.97;3.83;;;2.40;99.90;;;;;;4982533;28;20213;-75
2021/01/24 10:50:39;;;;;;;5.77;3.40;;;2.40;99.90;;;;;;4975468;28;20208;-75
2021/01/24 10:53:06;;;;;;;7.23;3.77;;;2.40;99.90;;;;;;4969542;28;20228;-75
2021/01/24 10:55:35;;;;;;;7.30;3.87;;;2.50;99.90;;;;;;4972182;28;20305;-75
2021/01/24 10:58:02;;;;;;;7.60;4.37;;;2.60;99.90;;;;;;4973379;28;20204;-75
2021/01/24 11:00:29;;;;;;;6.73;3.97;;;2.60;99.90;;;;;;4967960;28;20705;-75
2021/01/24 11:02:55;;;;;;;6.10;3.40;;;2.60;99.90;;;;;;4952196;28;20779;-75
2021/01/24 11:05:22;;;;;;;6.90;3.97;;;2.70;99.90;;;;;;4967395;28;20240;-74
2021/01/24 11:07:48;;;;;;;6.73;4.13;;;2.80;99.90;;;;;;4967688;28;20251;-75
2021/01/24 11:10:15;;;;;;;7.27;4.00;;;2.80;99.90;;;;;;4966092;28;20298;-75
2021/01/24 11:12:42;;;;;;;7.87;4.20;;;2.50;99.90;;;;;;4962702;28;20228;-75
2021/01/24 11:15:10;;;;;;;11.10;5.43;;;2.60;99.90;;;;;;4961984;28;20323;-75
2021/01/24 11:17:37;;;;;;;10.87;6.00;;;2.50;99.90;;;;;;4963494;28;20287;-74
2021/01/24 11:20:06;;;;;;;10.83;5.57;;;2.50;99.90;;;;;;4963095;28;20208;-75
2021/01/24 11:22:33;;;;;;;9.83;5.53;;;2.40;99.90;;;;;;4958600;28;20271;-75
2021/01/24 11:24:59;;;;;;;28.70;13.37;;;2.60;99.90;;;;;;4961507;28;20288;-76
2021/01/24 11:27:25;;;;;;;18.07;8.63;;;2.50;99.90;;;;;;4962382;28;20205;-76
2021/01/24 11:29:53;;;;;;;35.73;18.47;;;2.40;99.90;;;;;;4968218;28;20722;-74
2021/01/24 11:32:19;;;;;;;12.83;5.87;;;2.40;99.90;;;;;;4966165;28;20782;-75
2021/01/24 11:34:46;;;;;;;17.27;8.33;;;2.50;99.90;;;;;;4971310;28;20201;-76
2021/01/24 11:37:12;;;;;;;16.93;7.20;;;2.40;99.90;;;;;;4964998;28;20871;-76
2021/01/24 11:39:39;;;;;;;15.90;7.47;;;2.30;99.90;;;;;;4966159;28;20386;-76
2021/01/24 11:42:05;;;;;;;17.40;7.93;;;2.40;99.90;;;;;;4962286;28;20228;-76
2021/01/24 11:44:32;;;;;;;17.13;7.80;;;2.30;99.90;;;;;;4966757;28;20307;-76
2021/01/24 11:46:59;;;;;;;19.80;8.50;;;2.20;99.90;;;;;;4961043;28;20209;-74
2021/01/24 11:49:26;;;;;;;19.27;8.87;;;2.10;99.90;;;;;;4964434;28;20643;-74
2021/01/24 11:51:52;;;;;;;20.00;8.90;;;2.10;99.90;;;;;;4959692;28;20715;-74
2021/01/24 11:54:19;;;;;;;22.67;8.97;;;2.10;99.90;;;;;;4958550;28;20233;-75
2021/01/24 11:56:45;;;;;;;22.37;9.60;;;2.10;99.90;;;;;;4967927;28;20215;-76
2021/01/24 11:59:12;;;;;;;20.90;8.87;;;2.10;99.90;;;;;;4973574;28;20240;-74
2021/01/24 12:01:38;;;;;;;24.23;8.77;;;2.10;99.90;;;;;;4972315;28;20311;-75
2021/01/24 12:04:06;;;;;;;24.20;10.13;;;2.30;99.90;;;;;;4963460;28;20329;-75
2021/01/24 12:06:32;;;;;;;21.23;9.90;;;2.20;99.90;;;;;;4961085;28;20332;-74
2021/01/24 12:08:59;;;;;;;21.33;8.00;;;2.20;99.90;;;;;;4970348;28;20379;-75
2021/01/24 12:11:25;;;;;;;18.23;8.37;;;2.30;99.90;;;;;;4974047;28;20360;-76
2021/01/24 12:13:52;;;;;;;20.67;9.43;;;2.40;99.90;;;;;;4978793;28;20216;-73
2021/01/24 12:16:18;;;;;;;16.67;7.47;;;2.50;99.90;;;;;;4982487;28;20308;-76
2021/01/24 12:18:45;;;;;;;15.70;7.60;;;2.70;99.90;;;;;;4978862;28;20237;-76
2021/01/24 12:21:12;;;;;;;21.83;9.57;;;2.90;99.90;;;;;;4980809;28;20265;-77
2021/01/24 12:23:38;;;;;;;26.73;12.03;;;3.00;99.90;;;;;;4968218;28;22643;-76
2021/01/24 12:26:05;;;;;;;17.13;8.87;;;3.20;99.90;;;;;;4974597;28;20300;-75
2021/01/24 12:28:31;;;;;;;15.00;6.37;;;3.30;99.90;;;;;;4970489;28;20363;-73
2021/01/24 12:30:58;;;;;;;20.97;9.63;;;3.10;99.90;;;;;;4971879;28;20288;-75
2021/01/24 12:33:25;;;;;;;286.03;84.13;;;3.00;99.90;;;;;;4973877;28;20228;-76
2021/01/24 12:35:51;;;;;;;60.73;22.50;;;3.10;99.90;;;;;;4976540;28;20286;-76
2021/01/24 12:38:18;;;;;;;17.00;8.43;;;3.40;99.90;;;;;;4981857;28;20267;-75
2021/01/24 12:40:45;;;;;;;11.53;5.10;;;3.90;99.90;;;;;;4980309;28;20274;-75
2021/01/24 12:43:11;;;;;;;10.37;5.30;;;4.20;99.90;;;;;;4976101;28;20228;-76
2021/01/24 12:45:38;;;;;;;17.73;8.20;;;4.30;99.90;;;;;;4969312;28;20574;-76
2021/01/24 12:48:05;;;;;;;13.23;5.87;;;4.40;99.90;;;;;;4970237;28;20214;-75
2021/01/24 12:50:31;;;;;;;12.37;6.50;;;4.10;99.90;;;;;;4967548;28;20432;-75
2021/01/24 12:52:58;;;;;;;23.63;11.20;;;3.80;99.90;;;;;;4972730;28;20264;-75
2021/01/24 12:55:27;;;;;;;13.13;5.60;;;3.80;99.90;;;;;;4984820;28;20470;-75
2021/01/24 12:57:53;;;;;;;23.53;10.57;;;3.60;99.90;;;;;;4973410;28;20202;-76